Pendicherry, Pondicherry Airport (VOPC)

NamePondicherry Airport
CityPendicherry
CountryIndia
ICAOVOPC
IATAPNY
Altitude41 m
CoordinatesGoogle Map
Live Air TrafficLiveATC.net
METARVOPC 171100Z 07006KT 5000 HZ FEW020 28/19 Q1012 BECMG 4000 HZ
2019-01-17 11:00:00 Wind: East-Northeast (70°) 3.09 m/s - Visibility: 4000 m - Weather: Haze / Haze - Temperature: 28 °C - Dew point: 19 °C - Humidity: 58.1% - Pressure: 1012 hPa
Statistics

The table below shows the detailed information of all flights to/from Pendicherry, Pondicherry Airport (VOPC).